createdAt,value
2019-03-28T00:02:23.458Z,102704.85
2019-03-28T00:04:54.817Z,102681.65
2019-03-28T00:07:25.121Z,102692.85
2019-03-28T00:09:55.489Z,102691.79
2019-03-28T00:12:25.989Z,102692.90
2019-03-28T00:14:56.670Z,102689.74
2019-03-28T00:17:27.148Z,102688.67
2019-03-28T00:19:57.506Z,102692.80
2019-03-28T00:22:38.579Z,102692.59
2019-03-28T00:25:11.114Z,102686.08
2019-03-28T00:27:41.459Z,102685.36
2019-03-28T00:30:12.089Z,102686.80
2019-03-28T00:32:42.412Z,102679.61
2019-03-28T00:35:13.073Z,102681.59
2019-03-28T00:37:43.428Z,102679.08
2019-03-28T00:40:14.128Z,102679.22
2019-03-28T00:42:44.417Z,102678.27
2019-03-28T00:45:15.148Z,102676.05
2019-03-28T00:47:45.596Z,102681.23
2019-03-28T00:50:16.128Z,102674.59
2019-03-28T00:52:46.659Z,102669.73
2019-03-28T00:55:17.053Z,102675.81
2019-03-28T00:57:47.727Z,102676.30
2019-03-28T01:00:18.797Z,102678.86
2019-03-28T01:02:49.277Z,102675.81
2019-03-28T01:05:19.682Z,102680.34
2019-03-28T01:07:50.193Z,102669.92
2019-03-28T01:10:20.656Z,102675.86
2019-03-28T01:12:51.257Z,102670.44
2019-03-28T01:15:21.892Z,102679.01
2019-03-28T01:17:52.289Z,102679.88
2019-03-28T01:20:22.635Z,102679.34
2019-03-28T01:22:53.324Z,102682.88
2019-03-28T01:25:24.319Z,102685.39
2019-03-28T01:27:54.668Z,102682.39
2019-03-28T01:30:25.142Z,102682.24
2019-03-28T01:32:55.532Z,102682.78
2019-03-28T01:35:25.975Z,102685.14
2019-03-28T01:37:56.385Z,102689.44
2019-03-28T01:40:26.812Z,102687.47
2019-03-28T01:42:57.138Z,102689.63
2019-03-28T01:45:28.043Z,102692.69
2019-03-28T01:47:58.742Z,102688.91
2019-03-28T01:50:29.192Z,102688.03
2019-03-28T01:52:59.548Z,102693.41
2019-03-28T01:55:29.982Z,102694.09
2019-03-28T01:58:00.298Z,102691.76
2019-03-28T02:00:30.902Z,102690.50
2019-03-28T02:03:01.251Z,102689.93
2019-03-28T02:05:31.688Z,102689.25
2019-03-28T02:08:02.849Z,102684.76
2019-03-28T02:10:33.370Z,102691.91
2019-03-28T02:13:03.798Z,102686.45
2019-03-28T02:15:34.459Z,102688.77
2019-03-28T02:18:05.282Z,102690.23
2019-03-28T02:20:36.175Z,102693.45
2019-03-28T02:23:06.574Z,102689.55
2019-03-28T02:25:37.049Z,102692.55
2019-03-28T02:28:07.538Z,102693.03
2019-03-28T02:30:38.918Z,102704.00
2019-03-28T02:33:09.218Z,102698.83
2019-03-28T02:35:39.953Z,102702.59
2019-03-28T02:38:10.381Z,102707.42
2019-03-28T02:40:40.673Z,102700.57
2019-03-28T02:43:11.565Z,102702.74
2019-03-28T02:45:43.154Z,102700.62
2019-03-28T02:48:13.585Z,102699.17
2019-03-28T02:50:43.996Z,102702.25
2019-03-28T02:53:14.410Z,102699.84
2019-03-28T02:55:44.846Z,102703.75
2019-03-28T02:58:15.175Z,102710.52
2019-03-28T03:00:45.755Z,102709.80
2019-03-28T03:03:16.266Z,102706.95
2019-03-28T03:05:46.593Z,102711.58
2019-03-28T03:08:17.055Z,102709.70
2019-03-28T03:10:47.554Z,102709.17
2019-03-28T03:13:18.076Z,102705.02
2019-03-28T03:15:48.447Z,102705.34
2019-03-28T03:18:21.415Z,102706.38
2019-03-28T03:20:51.926Z,102714.63
2019-03-28T03:23:22.301Z,102712.11
2019-03-28T03:25:52.654Z,102710.86
2019-03-28T03:28:23.000Z,102718.53
2019-03-28T03:30:53.440Z,102722.64
2019-03-28T03:33:23.877Z,102720.56
2019-03-28T03:35:54.236Z,102718.39
2019-03-28T03:38:24.633Z,102718.05
2019-03-28T03:40:55.121Z,102716.02
2019-03-28T03:43:25.821Z,102713.80
2019-03-28T03:45:56.478Z,102715.92
2019-03-28T03:48:26.824Z,102716.89
2019-03-28T03:50:57.119Z,102716.35
2019-03-28T03:53:28.505Z,102718.58
2019-03-28T03:55:58.896Z,102721.48
2019-03-28T03:58:29.194Z,102718.72
2019-03-28T04:00:59.598Z,102717.89
2019-03-28T04:03:29.993Z,102723.26
2019-03-28T04:06:00.333Z,102723.05
2019-03-28T04:08:30.678Z,102728.42
2019-03-28T04:11:00.974Z,102723.40
2019-03-28T04:13:31.355Z,102726.62
2019-03-28T04:16:01.867Z,102729.88
2019-03-28T04:18:32.140Z,102730.84
2019-03-28T04:21:02.538Z,102725.97
2019-03-28T04:23:32.979Z,102729.39
2019-03-28T04:26:03.274Z,102725.97
2019-03-28T04:28:33.572Z,102728.63
2019-03-28T04:31:03.871Z,102729.62
2019-03-28T04:33:35.757Z,102729.77
2019-03-28T04:36:06.305Z,102737.30
2019-03-28T04:38:36.622Z,102739.41
2019-03-28T04:41:07.146Z,102751.10
2019-03-28T04:43:37.450Z,102752.50
2019-03-28T04:46:07.860Z,102753.89
2019-03-28T04:48:38.272Z,102752.50
2019-03-28T04:51:11.664Z,102749.56
2019-03-28T04:53:41.937Z,102752.33
2019-03-28T04:56:12.490Z,102758.06
2019-03-28T04:58:44.874Z,102757.59
2019-03-28T05:01:15.441Z,102752.05
2019-03-28T05:03:45.874Z,102750.65
2019-03-28T05:06:16.289Z,102760.83
2019-03-28T05:08:46.746Z,102761.89
2019-03-28T05:11:17.185Z,102773.77
2019-03-28T05:13:47.779Z,102763.55
2019-03-28T05:16:19.143Z,102761.95
2019-03-28T05:18:49.549Z,102761.61
2019-03-28T05:21:19.988Z,102764.80
2019-03-28T05:23:50.276Z,102773.97
2019-03-28T05:26:20.598Z,102770.94
2019-03-28T05:28:57.340Z,102775.42
2019-03-28T05:31:23.150Z,102777.22
2019-03-28T05:33:53.569Z,102782.47
2019-03-28T05:36:24.041Z,102776.19
2019-03-28T05:38:54.500Z,102780.50
2019-03-28T05:41:24.791Z,102785.13
2019-03-28T05:43:55.183Z,102788.95
2019-03-28T05:46:25.924Z,102789.00
2019-03-28T05:48:56.271Z,102785.49
2019-03-28T05:51:26.588Z,102798.97
2019-03-28T05:53:57.018Z,102795.34
2019-03-28T05:56:27.568Z,102801.14
2019-03-28T05:59:10.182Z,102746.97
2019-03-28T06:01:30.728Z,102796.66
2019-03-28T06:04:01.122Z,102797.30
2019-03-28T06:06:31.906Z,102803.30
2019-03-28T06:09:02.428Z,102800.06
2019-03-28T06:11:33.027Z,102798.91
2019-03-28T06:14:03.568Z,102803.94
2019-03-28T06:16:33.949Z,102803.59
2019-03-28T06:19:04.384Z,102805.30
2019-03-28T06:21:34.857Z,102810.33
2019-03-28T06:24:05.514Z,102814.77
2019-03-28T06:26:36.268Z,102807.36
2019-03-28T06:29:08.607Z,102800.44
2019-03-28T06:31:39.051Z,102800.86
2019-03-28T06:34:09.782Z,102800.34
2019-03-28T06:36:40.512Z,102795.54
2019-03-28T06:39:10.968Z,102794.62
2019-03-28T06:41:44.205Z,102793.52
2019-03-28T06:44:13.592Z,102795.92
2019-03-28T06:46:44.016Z,102793.75
2019-03-28T06:49:14.647Z,102790.38
2019-03-28T06:51:45.159Z,102783.47
2019-03-28T06:54:15.747Z,102785.56
2019-03-28T06:56:46.161Z,102787.77
2019-03-28T06:59:16.467Z,102776.61
2019-03-28T07:01:46.828Z,102781.10
2019-03-28T07:04:17.325Z,102777.10
2019-03-28T07:06:47.981Z,102789.19
2019-03-28T07:09:18.560Z,102790.83
2019-03-28T07:11:49.215Z,102791.59
2019-03-28T07:14:23.048Z,102796.03
2019-03-28T07:16:53.656Z,102799.51
2019-03-28T07:19:24.081Z,102804.39
2019-03-28T07:21:54.968Z,102801.92
2019-03-28T07:24:25.667Z,102802.34
2019-03-28T07:26:56.068Z,102804.72
2019-03-28T07:29:26.534Z,102813.02
2019-03-28T07:31:56.960Z,102810.62
2019-03-28T07:34:27.357Z,102818.56
2019-03-28T07:36:57.784Z,102823.10
2019-03-28T07:39:28.326Z,102813.59
2019-03-28T07:41:58.754Z,102825.89
2019-03-28T07:44:29.126Z,102831.98
2019-03-28T07:46:59.594Z,102831.98
2019-03-28T07:49:29.948Z,102835.45
2019-03-28T07:52:00.321Z,102839.73
2019-03-28T07:54:30.835Z,102829.78
2019-03-28T07:57:01.316Z,102835.92
2019-03-28T07:59:31.914Z,102843.06
2019-03-28T08:02:02.253Z,102838.37
2019-03-28T08:04:32.537Z,102842.19
2019-03-28T08:07:02.995Z,102839.09
2019-03-28T08:09:36.819Z,102834.17
2019-03-28T08:12:21.441Z,102834.75
2019-03-28T08:14:39.191Z,102821.81
2019-03-28T08:17:09.544Z,102843.48
2019-03-28T08:19:41.557Z,102844.08
2019-03-28T08:22:12.019Z,102834.97
2019-03-28T08:24:42.996Z,102833.94
2019-03-28T08:27:13.499Z,102825.48
2019-03-28T08:29:44.049Z,102818.23
2019-03-28T08:32:17.537Z,102819.37
2019-03-28T08:34:48.003Z,102823.80
2019-03-28T08:37:18.735Z,102820.25
2019-03-28T08:39:49.141Z,102830.32
2019-03-28T08:42:19.966Z,102823.76
2019-03-28T08:44:50.672Z,102823.75
2019-03-28T08:47:21.026Z,102823.88
2019-03-28T08:49:51.416Z,102823.67
2019-03-28T08:52:21.752Z,102830.63
2019-03-28T08:54:52.387Z,102842.94
2019-03-28T08:57:22.885Z,102843.75
2019-03-28T08:59:53.545Z,102844.08
2019-03-28T09:02:25.681Z,102846.48
2019-03-28T09:04:56.143Z,102847.69
2019-03-28T09:07:26.621Z,102836.98
2019-03-28T09:09:58.186Z,102843.09
2019-03-28T09:12:35.147Z,102842.94
2019-03-28T09:15:06.255Z,102842.40
2019-03-28T09:17:36.705Z,102853.41
2019-03-28T09:20:08.706Z,102855.02
2019-03-28T09:22:39.359Z,102855.31
2019-03-28T09:25:10.312Z,102850.17
2019-03-28T09:27:40.739Z,102851.13
2019-03-28T09:30:13.074Z,102853.92
2019-03-28T09:32:43.725Z,102854.77
2019-03-28T09:35:19.237Z,102851.57
2019-03-28T09:37:50.701Z,102853.20
2019-03-28T09:40:21.123Z,102854.60
2019-03-28T09:42:51.634Z,102856.89
2019-03-28T09:45:22.083Z,102855.86
2019-03-28T09:47:52.448Z,102850.42
2019-03-28T09:50:22.918Z,102853.84
2019-03-28T09:52:53.293Z,102850.58
2019-03-28T09:55:23.825Z,102848.83
2019-03-28T09:57:54.444Z,102845.27
2019-03-28T10:00:25.017Z,102844.53
2019-03-28T10:02:55.498Z,102843.15
2019-03-28T10:05:25.917Z,102833.12
2019-03-28T10:07:56.476Z,102839.27
2019-03-28T10:10:26.982Z,102836.20
2019-03-28T10:12:57.762Z,102832.40
2019-03-28T10:15:28.607Z,102834.90
2019-03-28T10:17:59.144Z,102831.32
2019-03-28T10:20:29.437Z,102829.16
2019-03-28T10:22:59.820Z,102815.42
2019-03-28T10:25:30.271Z,102816.68
2019-03-28T10:28:00.702Z,102821.73
2019-03-28T10:30:42.094Z,102816.16
2019-03-28T10:33:12.680Z,102822.66
2019-03-28T10:35:43.256Z,102814.86
2019-03-28T10:38:13.674Z,102818.84
2019-03-28T10:40:44.025Z,102824.44
2019-03-28T10:43:14.513Z,102825.48
2019-03-28T10:45:45.003Z,102824.91
2019-03-28T10:48:15.398Z,102831.91
2019-03-28T10:50:46.242Z,102827.22
2019-03-28T10:53:16.845Z,102829.20
2019-03-28T10:55:47.391Z,102825.41
2019-03-28T10:58:19.345Z,102830.69
2019-03-28T11:00:50.064Z,102826.52
2019-03-28T11:03:20.629Z,102837.34
2019-03-28T11:05:51.034Z,102833.83
2019-03-28T11:08:21.442Z,102831.48
2019-03-28T11:10:52.818Z,102833.95
2019-03-28T11:13:23.152Z,102835.34
2019-03-28T11:15:53.853Z,102828.27
2019-03-28T11:18:24.148Z,102836.92
2019-03-28T11:20:54.596Z,102840.34
2019-03-28T11:23:24.924Z,102841.34
2019-03-28T11:25:57.313Z,102839.92
2019-03-28T11:28:27.503Z,102837.95
2019-03-28T11:30:58.972Z,102843.38
2019-03-28T11:33:29.347Z,102847.94
2019-03-28T11:35:59.720Z,102844.69
2019-03-28T11:38:30.081Z,102850.13
2019-03-28T11:41:00.609Z,102849.57
2019-03-28T11:43:31.084Z,102850.49
2019-03-28T11:46:02.022Z,102854.45
2019-03-28T11:48:32.360Z,102848.28
2019-03-28T11:51:03.095Z,102849.14
2019-03-28T11:53:33.747Z,102846.57
2019-03-28T11:56:04.505Z,102848.36
2019-03-28T11:58:34.851Z,102847.13
2019-03-28T12:01:05.530Z,102844.03
2019-03-28T12:03:35.917Z,102849.70
2019-03-28T12:06:06.312Z,102842.64
2019-03-28T12:08:37.954Z,102841.69
2019-03-28T12:11:08.305Z,102840.25
2019-03-28T12:13:44.852Z,102843.14
2019-03-28T12:16:10.763Z,102845.34
2019-03-28T12:18:41.068Z,102843.88
2019-03-28T12:21:11.460Z,102850.58
2019-03-28T12:23:41.891Z,102842.59
2019-03-28T12:26:12.659Z,102837.70
2019-03-28T12:28:43.263Z,102828.47
2019-03-28T12:31:13.738Z,102841.15
2019-03-28T12:33:44.335Z,102838.59
2019-03-28T12:36:15.225Z,102843.50
2019-03-28T12:38:45.537Z,102844.22
2019-03-28T12:41:16.380Z,102845.34
2019-03-28T12:43:47.119Z,102844.28
2019-03-28T12:46:17.542Z,102849.73
2019-03-28T12:48:48.310Z,102850.99
2019-03-28T12:51:18.642Z,102849.19
2019-03-28T12:53:49.395Z,102848.30
2019-03-28T12:56:20.776Z,102849.56
2019-03-28T12:58:51.198Z,102851.74
2019-03-28T13:01:21.546Z,102848.66
2019-03-28T13:03:51.842Z,102834.73
2019-03-28T13:06:22.663Z,102833.77
2019-03-28T13:08:52.950Z,102831.94
2019-03-28T13:11:23.347Z,102835.53
2019-03-28T13:13:53.772Z,102838.97
2019-03-28T13:16:24.255Z,102845.98
2019-03-28T13:18:55.073Z,102841.97
2019-03-28T13:21:25.600Z,102839.14
2019-03-28T13:23:55.916Z,102847.48
2019-03-28T13:26:26.651Z,102854.91
2019-03-28T13:28:57.474Z,102852.38
2019-03-28T13:31:27.990Z,102852.02
2019-03-28T13:34:01.376Z,102856.00
2019-03-28T13:36:32.528Z,102845.74
2019-03-28T13:39:02.856Z,102847.52
2019-03-28T13:41:33.473Z,102846.40
2019-03-28T13:44:03.907Z,102845.33
2019-03-28T13:46:34.401Z,102846.16
2019-03-28T13:49:05.144Z,102847.09
2019-03-28T13:51:35.674Z,102846.20
2019-03-28T13:54:05.989Z,102848.56
2019-03-28T13:56:38.539Z,102837.17
2019-03-28T13:59:08.477Z,102838.40
2019-03-28T14:01:39.068Z,102834.59
2019-03-28T14:04:09.419Z,102839.49
2019-03-28T14:06:40.278Z,102837.89
2019-03-28T14:09:10.797Z,102829.98
2019-03-28T14:11:41.143Z,102793.18
2019-03-28T14:14:11.524Z,102829.83
2019-03-28T14:16:41.952Z,102828.22
2019-03-28T14:19:12.348Z,102828.95
2019-03-28T14:21:42.778Z,102826.78
2019-03-28T14:24:13.608Z,102831.13
2019-03-28T14:26:43.906Z,102823.37
2019-03-28T14:29:14.350Z,102823.73
2019-03-28T14:31:45.002Z,102817.41
2019-03-28T14:34:15.666Z,102817.22
2019-03-28T14:36:46.189Z,102824.64
2019-03-28T14:39:16.628Z,102829.36
2019-03-28T14:41:47.259Z,102824.62
2019-03-28T14:44:17.673Z,102820.67
2019-03-28T14:46:48.103Z,102816.87
2019-03-28T14:49:18.860Z,102820.85
2019-03-28T14:51:49.346Z,102819.41
2019-03-28T14:54:20.025Z,102819.40
2019-03-28T14:56:52.613Z,102817.76
2019-03-28T14:59:32.308Z,102813.44
2019-03-28T15:01:56.178Z,102810.72
2019-03-28T15:04:27.205Z,102819.02
2019-03-28T15:06:57.602Z,102821.01
2019-03-28T15:09:28.039Z,102820.28
2019-03-28T15:11:58.470Z,102820.09
2019-03-28T15:14:28.942Z,102817.55
2019-03-28T15:16:59.373Z,102818.97
2019-03-28T15:19:29.777Z,102815.86
2019-03-28T15:22:00.246Z,102816.24
2019-03-28T15:24:31.550Z,102815.36
2019-03-28T15:27:02.522Z,102818.06
2019-03-28T15:29:33.634Z,102823.12
2019-03-28T15:32:04.046Z,102819.16
2019-03-28T15:34:34.452Z,102813.55
2019-03-28T15:37:05.054Z,102815.52
2019-03-28T15:39:35.415Z,102808.84
2019-03-28T15:42:05.898Z,102813.39
2019-03-28T15:44:39.180Z,102811.40
2019-03-28T15:47:08.299Z,102812.13
2019-03-28T15:49:38.673Z,102825.14
2019-03-28T15:52:09.102Z,102814.50
2019-03-28T15:54:39.824Z,102814.88
2019-03-28T15:57:10.300Z,102821.19
2019-03-28T15:59:41.714Z,102820.31
2019-03-28T16:02:12.099Z,102815.80
2019-03-28T16:04:42.500Z,102818.50
2019-03-28T16:07:12.934Z,102823.37
2019-03-28T16:09:43.273Z,102817.23
2019-03-28T16:12:13.639Z,102820.12
2019-03-28T16:14:44.078Z,102821.56
2019-03-28T16:17:14.453Z,102825.36
2019-03-28T16:19:45.298Z,102818.52
2019-03-28T16:22:15.821Z,102814.16
2019-03-28T16:24:46.598Z,102818.31
2019-03-28T16:27:22.111Z,102817.23
2019-03-28T16:29:55.703Z,102815.78
2019-03-28T16:32:26.161Z,102814.70
2019-03-28T16:34:56.572Z,102819.02
2019-03-28T16:37:27.672Z,102821.38
2019-03-28T16:39:58.316Z,102821.21
2019-03-28T16:42:28.661Z,102829.67
2019-03-28T16:44:59.077Z,102826.37
2019-03-28T16:47:29.589Z,102829.64
2019-03-28T16:50:00.027Z,102832.88
2019-03-28T16:52:32.196Z,102827.98
2019-03-28T16:55:02.953Z,102830.16
2019-03-28T16:57:34.391Z,102834.13
2019-03-28T17:00:08.229Z,102832.30
2019-03-28T17:02:40.237Z,102835.22
2019-03-28T17:05:11.056Z,102825.28
2019-03-28T17:07:42.627Z,102820.23
2019-03-28T17:10:19.617Z,102825.98
2019-03-28T17:12:50.730Z,102824.37
2019-03-28T17:15:21.097Z,102833.39
2019-03-28T17:17:54.945Z,102832.69
2019-03-28T17:20:28.489Z,102839.70
2019-03-28T17:22:59.121Z,102834.65
2019-03-28T17:25:29.634Z,102836.61
2019-03-28T17:28:00.174Z,102834.81
2019-03-28T17:30:30.866Z,102842.05
2019-03-28T17:33:01.185Z,102839.52
2019-03-28T17:35:31.632Z,102836.42
2019-03-28T17:38:02.622Z,102835.51
2019-03-28T17:40:32.915Z,102833.14
2019-03-28T17:43:03.394Z,102839.98
2019-03-28T17:45:34.208Z,102836.92
2019-03-28T17:48:04.808Z,102836.69
2019-03-28T17:50:35.406Z,102830.55
2019-03-28T17:53:06.062Z,102831.45
2019-03-28T17:55:36.928Z,102831.44
2019-03-28T17:58:08.526Z,102834.66
2019-03-28T18:00:39.591Z,102830.13
2019-03-28T18:03:10.127Z,102832.12
2019-03-28T18:05:42.527Z,102832.12
2019-03-28T18:08:13.121Z,102833.19
2019-03-28T18:10:43.839Z,102837.32
2019-03-28T18:13:15.530Z,102840.36
2019-03-28T18:15:45.993Z,102840.36
2019-03-28T18:18:16.449Z,102836.76
2019-03-28T18:20:47.223Z,102829.35
2019-03-28T18:23:17.647Z,102832.09
2019-03-28T18:25:48.054Z,102840.71
2019-03-28T18:28:18.443Z,102840.87
2019-03-28T18:30:48.951Z,102841.03
2019-03-28T18:33:19.365Z,102840.69
2019-03-28T18:35:49.923Z,102846.09
2019-03-28T18:38:20.555Z,102846.63
2019-03-28T18:40:51.228Z,102846.63
2019-03-28T18:43:22.283Z,102844.45
2019-03-28T18:45:52.774Z,102844.45
2019-03-28T18:48:30.746Z,102843.93
2019-03-28T18:50:56.279Z,102841.94
2019-03-28T18:53:26.716Z,102851.50
2019-03-28T18:56:04.125Z,102849.67
2019-03-28T18:58:37.533Z,102848.41
2019-03-28T19:01:07.893Z,102846.98
2019-03-28T19:03:38.355Z,102850.41
2019-03-28T19:06:08.726Z,102849.67
2019-03-28T19:08:39.212Z,102852.38
2019-03-28T19:11:09.784Z,102853.87
2019-03-28T19:13:40.130Z,102851.53
2019-03-28T19:16:10.731Z,102854.05
2019-03-28T19:18:42.020Z,102854.05
2019-03-28T19:21:12.403Z,102849.92
2019-03-28T19:23:42.831Z,102851.36
2019-03-28T19:26:13.367Z,102850.27
2019-03-28T19:28:44.088Z,102855.31
2019-03-28T19:31:14.655Z,102817.15
2019-03-28T19:33:45.463Z,102855.66
2019-03-28T19:36:16.606Z,102851.18
2019-03-28T19:38:47.574Z,102861.23
2019-03-28T19:41:18.050Z,102861.23
2019-03-28T19:43:48.607Z,102858.17
2019-03-28T19:46:20.591Z,102867.17
2019-03-28T19:48:51.032Z,102867.00
2019-03-28T19:51:21.647Z,102866.27
2019-03-28T19:53:52.046Z,102862.12
2019-03-28T19:56:22.606Z,102861.59
2019-03-28T19:58:53.179Z,102865.15
2019-03-28T20:01:23.713Z,102864.77
2019-03-28T20:03:55.176Z,102872.28
2019-03-28T20:06:25.808Z,102860.39
2019-03-28T20:08:56.178Z,102864.91
2019-03-28T20:11:26.877Z,102868.13
2019-03-28T20:13:57.711Z,102868.86
2019-03-28T20:16:28.107Z,102863.06
2019-03-28T20:18:59.329Z,102862.34
2019-03-28T20:21:29.705Z,102867.03
2019-03-28T20:24:00.144Z,102862.86
2019-03-28T20:26:30.609Z,102866.43
2019-03-28T20:29:00.985Z,102866.43
2019-03-28T20:31:31.328Z,102870.21
2019-03-28T20:34:02.035Z,102862.64
2019-03-28T20:36:38.509Z,102862.81
2019-03-28T20:39:08.607Z,102864.80
2019-03-28T20:41:39.691Z,102863.36
2019-03-28T20:44:11.656Z,102870.37
2019-03-28T20:46:42.215Z,102874.41
2019-03-28T20:49:12.559Z,102873.30
2019-03-28T20:51:42.908Z,102873.02
2019-03-28T20:54:14.354Z,102876.31
2019-03-28T20:56:44.755Z,102878.81
2019-03-28T20:59:15.138Z,102876.72
2019-03-28T21:01:45.550Z,102882.09
2019-03-28T21:04:30.335Z,102882.25
2019-03-28T21:06:48.935Z,102875.59
2019-03-28T21:09:19.490Z,102876.72
2019-03-28T21:11:52.746Z,102875.81
2019-03-28T21:14:23.129Z,102879.75
2019-03-28T21:16:53.596Z,102878.73
2019-03-28T21:19:23.963Z,102879.73
2019-03-28T21:21:55.011Z,102883.16
2019-03-28T21:24:25.797Z,102874.37
2019-03-28T21:26:56.160Z,102886.11
2019-03-28T21:29:26.629Z,102877.78
2019-03-28T21:31:57.386Z,102873.02
2019-03-28T21:34:27.796Z,102877.47
2019-03-28T21:36:58.876Z,102873.77
2019-03-28T21:39:29.396Z,102878.77
2019-03-28T21:41:59.903Z,102881.45
2019-03-28T21:44:30.271Z,102889.52
2019-03-28T21:47:00.590Z,102887.53
2019-03-28T21:49:31.093Z,102889.14
2019-03-28T21:52:01.450Z,102892.39
2019-03-28T21:54:32.105Z,102890.56
2019-03-28T21:57:02.611Z,102891.32
2019-03-28T21:59:32.955Z,102894.22
2019-03-28T22:02:03.290Z,102888.83
2019-03-28T22:04:34.920Z,102886.83
2019-03-28T22:07:05.431Z,102883.22
2019-03-28T22:09:35.894Z,102884.72
2019-03-28T22:12:06.465Z,102879.89
2019-03-28T22:14:37.595Z,102883.03
2019-03-28T22:17:08.143Z,102885.73
2019-03-28T22:19:38.622Z,102885.05
2019-03-28T22:22:09.468Z,102886.52
2019-03-28T22:24:39.834Z,102884.00
2019-03-28T22:27:10.435Z,102882.14
2019-03-28T22:29:40.750Z,102885.98
2019-03-28T22:32:11.872Z,102886.70
2019-03-28T22:34:50.282Z,102884.53
2019-03-28T22:37:20.369Z,102887.97
2019-03-28T22:39:50.912Z,102885.81
2019-03-28T22:42:21.492Z,102884.78
2019-03-28T22:44:51.902Z,102885.39
2019-03-28T22:47:23.168Z,102886.03
2019-03-28T22:49:53.502Z,102889.98
2019-03-28T22:52:25.141Z,102886.19
2019-03-28T22:54:58.200Z,102884.45
2019-03-28T22:57:28.617Z,102883.72
2019-03-28T22:59:58.981Z,102880.87
2019-03-28T23:02:29.402Z,102886.20
2019-03-28T23:04:59.884Z,102884.06
2019-03-28T23:07:30.191Z,102880.31
2019-03-28T23:10:00.635Z,102880.52
2019-03-28T23:12:31.124Z,102876.92
2019-03-28T23:15:02.139Z,102880.55
2019-03-28T23:17:32.684Z,102888.44
2019-03-28T23:20:03.101Z,102885.92
2019-03-28T23:22:33.986Z,102883.92
2019-03-28T23:25:04.749Z,102878.53
2019-03-28T23:27:35.590Z,102878.35
2019-03-28T23:30:07.594Z,102873.30
2019-03-28T23:32:39.327Z,102875.66
2019-03-28T23:35:11.053Z,102870.77
2019-03-28T23:37:41.643Z,102871.80
2019-03-28T23:40:12.304Z,102863.38
2019-03-28T23:42:43.999Z,102866.27
2019-03-28T23:45:14.861Z,102870.80
2019-03-28T23:47:45.333Z,102859.80
2019-03-28T23:50:16.919Z,102862.64
2019-03-28T23:52:48.185Z,102865.90
2019-03-28T23:55:21.315Z,102863.91
2019-03-28T23:57:51.624Z,102862.86
